sensor_id;sensor_type;location;lat;lon;timestamp;pressure;altitude;pressure_sealevel;temperature;humidity
7748;BME280;3918;42.564;23.164;2023-07-02T04:05:28;-11650.84;;;-142.29;100.00
7748;BME280;3918;42.564;23.164;2023-07-02T04:07:55;-11650.84;;;-142.29;100.00
7748;BME280;3918;42.564;23.164;2023-07-02T04:10:22;-11650.84;;;-142.29;100.00
7748;BME280;3918;42.564;23.164;2023-07-02T04:12:49;-11650.84;;;-142.29;100.00
7748;BME280;3918;42.564;23.164;2023-07-02T04:15:15;-11650.84;;;-142.29;100.00
7748;BME280;3918;42.564;23.164;2023-07-02T04:17:42;-11650.84;;;-142.29;100.00
7748;BME280;3918;42.564;23.164;2023-07-02T04:20:10;-11650.84;;;-142.29;100.00
7748;BME280;3918;42.564;23.164;2023-07-02T04:22:38;-11650.84;;;-142.29;100.00
7748;BME280;3918;42.564;23.164;2023-07-02T04:25:06;-11650.84;;;-142.29;100.00
7748;BME280;3918;42.564;23.164;2023-07-02T04:27:33;-11650.84;;;-142.29;100.00
7748;BME280;3918;42.564;23.164;2023-07-02T04:29:59;-11650.84;;;-142.29;100.00
7748;BME280;3918;42.564;23.164;2023-07-02T04:32:26;-11650.84;;;-142.29;100.00
7748;BME280;3918;42.564;23.164;2023-07-02T04:34:53;-11650.84;;;-142.29;100.00
7748;BME280;3918;42.564;23.164;2023-07-02T04:37:21;-11650.84;;;-142.29;100.00
7748;BME280;3918;42.564;23.164;2023-07-02T04:39:49;-11650.84;;;-142.29;100.00
7748;BME280;3918;42.564;23.164;2023-07-02T04:42:16;-11650.84;;;-142.29;100.00
7748;BME280;3918;42.564;23.164;2023-07-02T04:44:43;-11650.84;;;-142.29;100.00
7748;BME280;3918;42.564;23.164;2023-07-02T04:47:10;-11650.84;;;-142.29;100.00
7748;BME280;3918;42.564;23.164;2023-07-02T04:49:37;-11650.84;;;-142.29;100.00
7748;BME280;3918;42.564;23.164;2023-07-02T04:52:04;-11650.84;;;-142.29;100.00
7748;BME280;3918;42.564;23.164;2023-07-02T04:54:31;-11650.84;;;-142.29;100.00
7748;BME280;3918;42.564;23.164;2023-07-02T04:56:59;-11650.84;;;-142.29;100.00
7748;BME280;3918;42.564;23.164;2023-07-02T04:59:26;-11650.84;;;-142.29;100.00
7748;BME280;3918;42.564;23.164;2023-07-02T05:01:53;-11650.84;;;-142.29;100.00
7748;BME280;3918;42.564;23.164;2023-07-02T05:04:20;-11650.84;;;-142.29;100.00
7748;BME280;3918;42.564;23.164;2023-07-02T05:06:47;-11650.84;;;-142.29;100.00
7748;BME280;3918;42.564;23.164;2023-07-02T05:09:13;-11650.84;;;-142.29;100.00
7748;BME280;3918;42.564;23.164;2023-07-02T05:11:40;-11650.84;;;-142.29;100.00
7748;BME280;3918;42.564;23.164;2023-07-02T05:14:08;-11650.84;;;-142.29;100.00
7748;BME280;3918;42.564;23.164;2023-07-02T05:16:35;-11650.84;;;-142.29;100.00
7748;BME280;3918;42.564;23.164;2023-07-02T05:19:02;-11650.84;;;-142.29;100.00
7748;BME280;3918;42.564;23.164;2023-07-02T05:21:28;-11650.84;;;-142.29;100.00
7748;BME280;3918;42.564;23.164;2023-07-02T05:23:55;-11650.84;;;-142.29;100.00
7748;BME280;3918;42.564;23.164;2023-07-02T05:26:22;-11650.84;;;-142.29;100.00
7748;BME280;3918;42.564;23.164;2023-07-02T05:28:49;-11650.84;;;-142.29;100.00
7748;BME280;3918;42.564;23.164;2023-07-02T05:31:17;-11650.84;;;-142.29;100.00
7748;BME280;3918;42.564;23.164;2023-07-02T05:33:44;-11650.84;;;-142.29;100.00
7748;BME280;3918;42.564;23.164;2023-07-02T05:36:10;-11650.84;;;-142.29;100.00
7748;BME280;3918;42.564;23.164;2023-07-02T05:38:37;-11650.84;;;-142.29;100.00
7748;BME280;3918;42.564;23.164;2023-07-02T05:41:04;-11650.84;;;-142.29;100.00
7748;BME280;3918;42.564;23.164;2023-07-02T05:43:31;-11650.84;;;-142.29;100.00
7748;BME280;3918;42.564;23.164;2023-07-02T05:45:58;-11650.84;;;-142.29;100.00
7748;BME280;3918;42.564;23.164;2023-07-02T05:48:28;-11650.84;;;-142.29;100.00
7748;BME280;3918;42.564;23.164;2023-07-02T05:50:55;-11650.84;;;-142.29;100.00
7748;BME280;3918;42.564;23.164;2023-07-02T05:53:21;-11650.84;;;-142.29;100.00
7748;BME280;3918;42.564;23.164;2023-07-02T05:55:48;-11650.84;;;-142.29;100.00
7748;BME280;3918;42.564;23.164;2023-07-02T05:58:15;-11650.84;;;-142.29;100.00
7748;BME280;3918;42.564;23.164;2023-07-02T06:00:41;-11650.84;;;-142.29;100.00
7748;BME280;3918;42.564;23.164;2023-07-02T06:03:14;-11650.84;;;-142.29;100.00
7748;BME280;3918;42.564;23.164;2023-07-02T06:05:46;-11650.84;;;-142.29;100.00
7748;BME280;3918;42.564;23.164;2023-07-02T06:08:14;-11650.84;;;-142.29;100.00
7748;BME280;3918;42.564;23.164;2023-07-02T06:10:42;-11650.84;;;-142.29;100.00
7748;BME280;3918;42.564;23.164;2023-07-02T06:13:09;-11650.84;;;-142.29;100.00
7748;BME280;3918;42.564;23.164;2023-07-02T06:15:35;-11650.84;;;-142.29;100.00
7748;BME280;3918;42.564;23.164;2023-07-02T06:18:02;-11650.84;;;-142.29;100.00
7748;BME280;3918;42.564;23.164;2023-07-02T06:20:29;-11650.84;;;-142.29;100.00
7748;BME280;3918;42.564;23.164;2023-07-02T06:22:57;-11650.84;;;-142.29;100.00
7748;BME280;3918;42.564;23.164;2023-07-02T06:25:24;-11650.84;;;-142.29;100.00
7748;BME280;3918;42.564;23.164;2023-07-02T06:27:51;-11650.84;;;-142.29;100.00
7748;BME280;3918;42.564;23.164;2023-07-02T06:30:20;-11650.84;;;-142.29;100.00
7748;BME280;3918;42.564;23.164;2023-07-02T06:32:47;-11650.84;;;-142.29;100.00
7748;BME280;3918;42.564;23.164;2023-07-02T06:35:13;-11650.84;;;-142.29;100.00
7748;BME280;3918;42.564;23.164;2023-07-02T06:37:40;-11650.84;;;-142.29;100.00
7748;BME280;3918;42.564;23.164;2023-07-02T06:40:10;-11650.84;;;-142.29;100.00
7748;BME280;3918;42.564;23.164;2023-07-02T06:42:36;-11650.84;;;-142.29;100.00
7748;BME280;3918;42.564;23.164;2023-07-02T06:45:04;-11650.84;;;-142.29;100.00
7748;BME280;3918;42.564;23.164;2023-07-02T06:47:31;-11650.84;;;-142.29;88.76
7748;BME280;3918;42.564;23.164;2023-07-02T06:49:58;-11650.84;;;-142.29;83.04
7748;BME280;3918;42.564;23.164;2023-07-02T06:52:25;-11650.84;;;-142.29;73.65
7748;BME280;3918;42.564;23.164;2023-07-02T06:54:52;-11650.84;;;-142.29;59.89
7748;BME280;3918;42.564;23.164;2023-07-02T06:57:20;-11650.84;;;-142.29;60.37
7748;BME280;3918;42.564;23.164;2023-07-02T06:59:46;-11650.84;;;-142.29;60.33
7748;BME280;3918;42.564;23.164;2023-07-02T07:02:13;-11650.84;;;-142.29;60.07
7748;BME280;3918;42.564;23.164;2023-07-02T07:04:40;-11650.84;;;-142.29;62.29
7748;BME280;3918;42.564;23.164;2023-07-02T07:07:07;-11650.84;;;-142.29;61.40
7748;BME280;3918;42.564;23.164;2023-07-02T07:09:34;-11650.84;;;-142.29;67.65
7748;BME280;3918;42.564;23.164;2023-07-02T07:12:00;-11650.84;;;-142.29;68.40
7748;BME280;3918;42.564;23.164;2023-07-02T07:14:29;-11650.84;;;-142.29;68.94
7748;BME280;3918;42.564;23.164;2023-07-02T07:16:55;-11650.84;;;-142.29;64.92
7748;BME280;3918;42.564;23.164;2023-07-02T07:19:22;-11650.84;;;-142.29;63.77
7748;BME280;3918;42.564;23.164;2023-07-02T07:21:49;-11650.84;;;-142.29;61.34
7748;BME280;3918;42.564;23.164;2023-07-02T07:24:15;-11650.84;;;-142.29;60.75
7748;BME280;3918;42.564;23.164;2023-07-02T07:26:42;-11650.84;;;-142.29;54.87
7748;BME280;3918;42.564;23.164;2023-07-02T07:29:10;-11650.84;;;-142.29;52.80
7748;BME280;3918;42.564;23.164;2023-07-02T07:31:39;-11650.84;;;-142.29;57.25
7748;BME280;3918;42.564;23.164;2023-07-02T07:34:06;-11650.84;;;-142.29;57.65
7748;BME280;3918;42.564;23.164;2023-07-02T07:36:33;-11650.84;;;-142.29;54.10
7748;BME280;3918;42.564;23.164;2023-07-02T07:38:59;-11650.84;;;-142.29;51.40
7748;BME280;3918;42.564;23.164;2023-07-02T07:41:26;-11650.84;;;-142.29;50.07
7748;BME280;3918;42.564;23.164;2023-07-02T07:43:53;-11650.84;;;-142.29;52.37
7748;BME280;3918;42.564;23.164;2023-07-02T07:46:20;-11650.84;;;-142.29;53.34
7748;BME280;3918;42.564;23.164;2023-07-02T07:48:48;-11650.84;;;-142.29;53.40
7748;BME280;3918;42.564;23.164;2023-07-02T07:51:15;-11650.84;;;-142.29;52.66
7748;BME280;3918;42.564;23.164;2023-07-02T07:53:41;-11650.84;;;-142.29;54.74
7748;BME280;3918;42.564;23.164;2023-07-02T07:56:08;-11650.84;;;-142.29;53.37
7748;BME280;3918;42.564;23.164;2023-07-02T07:58:35;-11650.84;;;-142.29;54.84
7748;BME280;3918;42.564;23.164;2023-07-02T08:01:02;-11650.84;;;-142.29;55.13
7748;BME280;3918;42.564;23.164;2023-07-02T08:03:29;-11650.84;;;-142.29;57.31
7748;BME280;3918;42.564;23.164;2023-07-02T08:05:57;-11650.84;;;-142.29;56.76
7748;BME280;3918;42.564;23.164;2023-07-02T08:08:24;-11650.84;;;-142.29;55.46
7748;BME280;3918;42.564;23.164;2023-07-02T08:10:50;-11650.84;;;-142.29;56.74
7748;BME280;3918;42.564;23.164;2023-07-02T08:13:17;-11650.84;;;-142.29;53.91
7748;BME280;3918;42.564;23.164;2023-07-02T08:15:44;-11650.84;;;-142.29;55.19
7748;BME280;3918;42.564;23.164;2023-07-02T08:18:11;-11650.84;;;-142.29;54.89
7748;BME280;3918;42.564;23.164;2023-07-02T08:20:38;-11650.84;;;-142.29;54.81
7748;BME280;3918;42.564;23.164;2023-07-02T08:23:07;-11650.84;;;-142.29;55.96
7748;BME280;3918;42.564;23.164;2023-07-02T08:25:34;-11650.84;;;-142.29;55.58
7748;BME280;3918;42.564;23.164;2023-07-02T08:28:00;-11650.84;;;-142.29;57.63
7748;BME280;3918;42.564;23.164;2023-07-02T08:30:27;-11650.84;;;-142.29;60.13
7748;BME280;3918;42.564;23.164;2023-07-02T08:32:54;-11650.84;;;-142.29;59.07
7748;BME280;3918;42.564;23.164;2023-07-02T08:35:21;-11650.84;;;-142.29;62.28
7748;BME280;3918;42.564;23.164;2023-07-02T08:37:48;-11650.84;;;-142.29;59.52
7748;BME280;3918;42.564;23.164;2023-07-02T08:40:17;-11650.84;;;-142.29;62.26
7748;BME280;3918;42.564;23.164;2023-07-02T08:42:45;-11650.84;;;-142.29;63.77
7748;BME280;3918;42.564;23.164;2023-07-02T08:45:13;-11650.84;;;-142.29;62.66
7748;BME280;3918;42.564;23.164;2023-07-02T08:47:40;-11650.84;;;-142.29;63.14
7748;BME280;3918;42.564;23.164;2023-07-02T08:50:08;-11650.84;;;-142.29;61.05
7748;BME280;3918;42.564;23.164;2023-07-02T08:52:35;-11650.84;;;-142.29;59.20
7748;BME280;3918;42.564;23.164;2023-07-02T08:55:02;-11650.84;;;-142.29;61.24
7748;BME280;3918;42.564;23.164;2023-07-02T08:57:30;-11650.84;;;-142.29;59.35
7748;BME280;3918;42.564;23.164;2023-07-02T08:59:57;-11650.84;;;-142.29;60.33
7748;BME280;3918;42.564;23.164;2023-07-02T09:02:31;-11650.84;;;-142.29;61.43
7748;BME280;3918;42.564;23.164;2023-07-02T09:04:59;-11650.84;;;-142.29;67.20
7748;BME280;3918;42.564;23.164;2023-07-02T09:07:25;-11650.84;;;-142.29;68.94
7748;BME280;3918;42.564;23.164;2023-07-02T09:09:52;-11650.84;;;-142.29;67.59
7748;BME280;3918;42.564;23.164;2023-07-02T09:12:23;-11650.84;;;-142.29;67.09
7748;BME280;3918;42.564;23.164;2023-07-02T09:14:56;-11650.84;;;-142.29;66.17
7748;BME280;3918;42.564;23.164;2023-07-02T09:17:27;-11650.84;;;-142.29;70.96
7748;BME280;3918;42.564;23.164;2023-07-02T09:19:55;-11650.84;;;-142.29;69.63
7748;BME280;3918;42.564;23.164;2023-07-02T09:22:22;-11650.84;;;-142.29;69.76
7748;BME280;3918;42.564;23.164;2023-07-02T09:24:52;-11650.84;;;-142.29;71.24
7748;BME280;3918;42.564;23.164;2023-07-02T09:27:20;-11650.84;;;-142.29;73.43
7748;BME280;3918;42.564;23.164;2023-07-02T09:29:50;-11650.84;;;-142.29;65.59
7748;BME280;3918;42.564;23.164;2023-07-02T09:32:25;-11650.84;;;-142.29;68.85
7748;BME280;3918;42.564;23.164;2023-07-02T09:34:54;-11650.84;;;-142.29;59.17
7748;BME280;3918;42.564;23.164;2023-07-02T09:37:22;-11650.84;;;-142.29;62.41
7748;BME280;3918;42.564;23.164;2023-07-02T09:39:50;-11650.84;;;-142.29;62.92
7748;BME280;3918;42.564;23.164;2023-07-02T09:42:17;-11650.84;;;-142.29;63.00
7748;BME280;3918;42.564;23.164;2023-07-02T09:44:45;-11650.84;;;-142.29;62.59
7748;BME280;3918;42.564;23.164;2023-07-02T09:47:13;-11650.84;;;-142.29;59.69
7748;BME280;3918;42.564;23.164;2023-07-02T09:49:47;-11650.84;;;-142.29;64.09
7748;BME280;3918;42.564;23.164;2023-07-02T09:52:16;-11650.84;;;-142.29;65.46
7748;BME280;3918;42.564;23.164;2023-07-02T09:54:44;-11650.84;;;-142.29;65.31
7748;BME280;3918;42.564;23.164;2023-07-02T09:57:11;-11650.84;;;-142.29;65.42
7748;BME280;3918;42.564;23.164;2023-07-02T09:59:39;-11650.84;;;-142.29;64.29
7748;BME280;3918;42.564;23.164;2023-07-02T10:02:07;-11650.84;;;-142.29;66.08
7748;BME280;3918;42.564;23.164;2023-07-02T10:04:57;-11650.84;;;-142.29;65.44
7748;BME280;3918;42.564;23.164;2023-07-02T10:07:27;-11650.84;;;-142.29;62.42
7748;BME280;3918;42.564;23.164;2023-07-02T10:09:54;-11650.84;;;-142.29;67.56
7748;BME280;3918;42.564;23.164;2023-07-02T10:12:22;-11650.84;;;-142.29;64.76
7748;BME280;3918;42.564;23.164;2023-07-02T10:14:50;-11650.84;;;-142.29;65.23
7748;BME280;3918;42.564;23.164;2023-07-02T10:17:24;-11650.84;;;-142.29;68.53
7748;BME280;3918;42.564;23.164;2023-07-02T10:19:53;-11650.84;;;-142.29;66.38
7748;BME280;3918;42.564;23.164;2023-07-02T10:22:22;-11650.84;;;-142.29;68.31
7748;BME280;3918;42.564;23.164;2023-07-02T10:24:55;-11650.84;;;-142.29;66.84
7748;BME280;3918;42.564;23.164;2023-07-02T10:27:42;-11650.84;;;-142.29;66.79
7748;BME280;3918;42.564;23.164;2023-07-02T10:30:10;-11650.84;;;-142.29;69.02
7748;BME280;3918;42.564;23.164;2023-07-02T10:32:37;-11650.84;;;-142.29;67.50
7748;BME280;3918;42.564;23.164;2023-07-02T10:35:13;-11650.84;;;-142.29;63.00
7748;BME280;3918;42.564;23.164;2023-07-02T10:37:41;-11650.84;;;-142.29;64.34
7748;BME280;3918;42.564;23.164;2023-07-02T10:40:10;-11650.84;;;-142.29;62.37
7748;BME280;3918;42.564;23.164;2023-07-02T10:42:47;-11650.84;;;-142.29;62.80
7748;BME280;3918;42.564;23.164;2023-07-02T10:45:14;-11650.84;;;-142.29;67.44
7748;BME280;3918;42.564;23.164;2023-07-02T10:47:41;-11650.84;;;-142.29;62.90
7748;BME280;3918;42.564;23.164;2023-07-02T10:50:16;-11650.84;;;-142.29;60.33
7748;BME280;3918;42.564;23.164;2023-07-02T10:52:44;-11650.84;;;-142.29;61.52
7748;BME280;3918;42.564;23.164;2023-07-02T10:55:16;-11650.84;;;-142.29;62.07
7748;BME280;3918;42.564;23.164;2023-07-02T10:57:43;-11650.84;;;-142.29;58.95
7748;BME280;3918;42.564;23.164;2023-07-02T11:00:11;-11650.84;;;-142.29;64.15
7748;BME280;3918;42.564;23.164;2023-07-02T11:02:38;-11650.84;;;-142.29;60.05
7748;BME280;3918;42.564;23.164;2023-07-02T11:05:05;-11650.84;;;-142.29;59.51
7748;BME280;3918;42.564;23.164;2023-07-02T11:07:34;-11650.84;;;-142.29;58.35
7748;BME280;3918;42.564;23.164;2023-07-02T11:10:02;-11650.84;;;-142.29;60.01
7748;BME280;3918;42.564;23.164;2023-07-02T11:12:30;-11650.84;;;-142.29;61.34
7748;BME280;3918;42.564;23.164;2023-07-02T11:15:07;-11650.84;;;-142.29;61.01
7748;BME280;3918;42.564;23.164;2023-07-02T11:17:34;-11650.84;;;-142.29;61.94
7748;BME280;3918;42.564;23.164;2023-07-02T11:20:01;-11650.84;;;-142.29;62.75
7748;BME280;3918;42.564;23.164;2023-07-02T11:22:34;-11650.84;;;-142.29;63.42
7748;BME280;3918;42.564;23.164;2023-07-02T11:25:13;-11650.84;;;-142.29;63.78
7748;BME280;3918;42.564;23.164;2023-07-02T11:27:41;-11650.84;;;-142.29;61.02
7748;BME280;3918;42.564;23.164;2023-07-02T11:30:09;-11650.84;;;-142.29;65.52
7748;BME280;3918;42.564;23.164;2023-07-02T11:32:47;-11650.84;;;-142.29;63.23
7748;BME280;3918;42.564;23.164;2023-07-02T11:35:15;-11650.84;;;-142.29;64.38
7748;BME280;3918;42.564;23.164;2023-07-02T11:37:42;-11650.84;;;-142.29;66.32
7748;BME280;3918;42.564;23.164;2023-07-02T11:40:11;-11650.84;;;-142.29;63.23
7748;BME280;3918;42.564;23.164;2023-07-02T11:42:39;-11650.84;;;-142.29;68.63
7748;BME280;3918;42.564;23.164;2023-07-02T11:45:07;-11650.84;;;-142.29;66.66
7748;BME280;3918;42.564;23.164;2023-07-02T11:47:34;-11650.84;;;-142.29;69.70
7748;BME280;3918;42.564;23.164;2023-07-02T11:50:01;-11650.84;;;-142.29;66.46
7748;BME280;3918;42.564;23.164;2023-07-02T11:52:28;-11650.84;;;-142.29;66.55
7748;BME280;3918;42.564;23.164;2023-07-02T11:54:54;-11650.84;;;-142.29;66.37
7748;BME280;3918;42.564;23.164;2023-07-02T11:57:21;-11650.84;;;-142.29;66.55
7748;BME280;3918;42.564;23.164;2023-07-02T11:59:50;-11650.84;;;-142.29;62.83
7748;BME280;3918;42.564;23.164;2023-07-02T12:02:18;-11650.84;;;-142.29;65.49
7748;BME280;3918;42.564;23.164;2023-07-02T12:04:45;-11650.84;;;-142.29;67.73
7748;BME280;3918;42.564;23.164;2023-07-02T12:07:12;-11650.84;;;-142.29;68.60
7748;BME280;3918;42.564;23.164;2023-07-02T12:09:39;-11650.84;;;-142.29;69.63
7748;BME280;3918;42.564;23.164;2023-07-02T12:12:07;-11650.84;;;-142.29;74.67
7748;BME280;3918;42.564;23.164;2023-07-02T12:14:33;-11650.84;;;-142.29;74.77
7748;BME280;3918;42.564;23.164;2023-07-02T12:17:02;-11650.84;;;-142.29;77.37
7748;BME280;3918;42.564;23.164;2023-07-02T12:19:29;-11650.84;;;-142.29;86.18
7748;BME280;3918;42.564;23.164;2023-07-02T12:21:55;-11650.84;;;-142.29;90.11
7748;BME280;3918;42.564;23.164;2023-07-02T12:24:22;-11650.84;;;-142.29;92.37
7748;BME280;3918;42.564;23.164;2023-07-02T12:26:49;-11650.84;;;-142.29;98.16
7748;BME280;3918;42.564;23.164;2023-07-02T12:29:16;-11650.84;;;-142.29;100.00
7748;BME280;3918;42.564;23.164;2023-07-02T12:31:43;-11650.84;;;-142.29;100.00
7748;BME280;3918;42.564;23.164;2023-07-02T12:34:11;-11650.84;;;-142.29;100.00
7748;BME280;3918;42.564;23.164;2023-07-02T12:36:38;-11650.84;;;-142.29;100.00
7748;BME280;3918;42.564;23.164;2023-07-02T12:39:04;-11650.84;;;-142.29;100.00
7748;BME280;3918;42.564;23.164;2023-07-02T12:41:31;-11650.84;;;-142.29;100.00
7748;BME280;3918;42.564;23.164;2023-07-02T12:43:58;-11650.84;;;-142.29;100.00
7748;BME280;3918;42.564;23.164;2023-07-02T12:46:25;-11650.84;;;-142.29;100.00
7748;BME280;3918;42.564;23.164;2023-07-02T12:48:52;-11650.84;;;-142.29;100.00
7748;BME280;3918;42.564;23.164;2023-07-02T12:51:20;-11650.84;;;-142.29;100.00
7748;BME280;3918;42.564;23.164;2023-07-02T12:53:47;-11650.84;;;-142.29;100.00
7748;BME280;3918;42.564;23.164;2023-07-02T12:56:14;-11650.84;;;-142.29;100.00
7748;BME280;3918;42.564;23.164;2023-07-02T12:58:41;-11650.84;;;-142.29;100.00
7748;BME280;3918;42.564;23.164;2023-07-02T13:01:08;-11650.84;;;-142.29;97.82
7748;BME280;3918;42.564;23.164;2023-07-02T13:03:34;-11650.84;;;-142.29;99.96
7748;BME280;3918;42.564;23.164;2023-07-02T13:06:01;-11650.84;;;-142.29;100.00
7748;BME280;3918;42.564;23.164;2023-07-02T13:08:29;-11650.84;;;-142.29;100.00
7748;BME280;3918;42.564;23.164;2023-07-02T13:10:56;-11650.84;;;-142.29;100.00
7748;BME280;3918;42.564;23.164;2023-07-02T13:13:23;-11650.84;;;-142.29;100.00
7748;BME280;3918;42.564;23.164;2023-07-02T13:15:50;-11650.84;;;-142.29;100.00
7748;BME280;3918;42.564;23.164;2023-07-02T13:18:17;-11650.84;;;-142.29;100.00
7748;BME280;3918;42.564;23.164;2023-07-02T13:20:44;-11650.84;;;-142.29;100.00
7748;BME280;3918;42.564;23.164;2023-07-02T13:23:10;-11650.84;;;-142.29;100.00
7748;BME280;3918;42.564;23.164;2023-07-02T13:25:38;-11650.84;;;-142.29;100.00
7748;BME280;3918;42.564;23.164;2023-07-02T13:28:05;-11650.84;;;-142.29;100.00
7748;BME280;3918;42.564;23.164;2023-07-02T13:30:32;-11650.84;;;-142.29;100.00
7748;BME280;3918;42.564;23.164;2023-07-02T13:32:59;-11650.84;;;-142.29;100.00
7748;BME280;3918;42.564;23.164;2023-07-02T13:35:26;-11650.84;;;-142.29;88.49
7748;BME280;3918;42.564;23.164;2023-07-02T13:37:53;-11650.84;;;-142.29;85.17
7748;BME280;3918;42.564;23.164;2023-07-02T13:40:20;-11650.84;;;-142.29;82.89
7748;BME280;3918;42.564;23.164;2023-07-02T13:42:48;-11650.84;;;-142.29;81.64
7748;BME280;3918;42.564;23.164;2023-07-02T13:45:14;-11650.84;;;-142.29;84.96
7748;BME280;3918;42.564;23.164;2023-07-02T13:47:41;-11650.84;;;-142.29;87.13
7748;BME280;3918;42.564;23.164;2023-07-02T13:50:09;-11650.84;;;-142.29;88.41
7748;BME280;3918;42.564;23.164;2023-07-02T13:52:36;-11650.84;;;-142.29;88.77
7748;BME280;3918;42.564;23.164;2023-07-02T13:55:03;-11650.84;;;-142.29;91.96
7748;BME280;3918;42.564;23.164;2023-07-02T13:57:30;-11650.84;;;-142.29;100.00
7748;BME280;3918;42.564;23.164;2023-07-02T13:59:58;-11650.84;;;-142.29;100.00
7748;BME280;3918;42.564;23.164;2023-07-02T14:02:25;-11650.84;;;-142.29;100.00
7748;BME280;3918;42.564;23.164;2023-07-02T14:04:51;-11650.84;;;-142.29;100.00
7748;BME280;3918;42.564;23.164;2023-07-02T14:07:19;-11650.84;;;-142.29;100.00
7748;BME280;3918;42.564;23.164;2023-07-02T14:09:45;-11650.84;;;-142.29;100.00
7748;BME280;3918;42.564;23.164;2023-07-02T14:12:12;-11650.84;;;-142.29;100.00
7748;BME280;3918;42.564;23.164;2023-07-02T14:14:39;-11650.84;;;-142.29;100.00
7748;BME280;3918;42.564;23.164;2023-07-02T14:17:07;-11650.84;;;-142.29;100.00
7748;BME280;3918;42.564;23.164;2023-07-02T14:19:34;-11650.84;;;-142.29;100.00
7748;BME280;3918;42.564;23.164;2023-07-02T14:22:01;-11650.84;;;-142.29;100.00
7748;BME280;3918;42.564;23.164;2023-07-02T14:24:27;-11650.84;;;-142.29;100.00
7748;BME280;3918;42.564;23.164;2023-07-02T14:26:56;-11650.84;;;-142.29;100.00
7748;BME280;3918;42.564;23.164;2023-07-02T14:29:22;-11650.84;;;-142.29;100.00
7748;BME280;3918;42.564;23.164;2023-07-02T14:31:49;-11650.84;;;-142.29;100.00
7748;BME280;3918;42.564;23.164;2023-07-02T14:34:17;-11650.84;;;-142.29;100.00
7748;BME280;3918;42.564;23.164;2023-07-02T14:36:44;-11650.84;;;-142.29;100.00
7748;BME280;3918;42.564;23.164;2023-07-02T14:39:11;-11650.84;;;-142.29;100.00
7748;BME280;3918;42.564;23.164;2023-07-02T14:41:37;-11650.84;;;-142.29;100.00
7748;BME280;3918;42.564;23.164;2023-07-02T14:44:05;-11650.84;;;-142.29;100.00
7748;BME280;3918;42.564;23.164;2023-07-02T14:46:32;-11650.84;;;-142.29;100.00
7748;BME280;3918;42.564;23.164;2023-07-02T14:48:58;-11650.84;;;-142.29;100.00
7748;BME280;3918;42.564;23.164;2023-07-02T14:51:26;-11650.84;;;-142.29;100.00
7748;BME280;3918;42.564;23.164;2023-07-02T14:53:53;-11650.84;;;-142.29;100.00
7748;BME280;3918;42.564;23.164;2023-07-02T14:56:20;-11650.84;;;-142.29;100.00
7748;BME280;3918;42.564;23.164;2023-07-02T14:58:47;-11650.84;;;-142.29;100.00
7748;BME280;3918;42.564;23.164;2023-07-02T15:01:15;-11650.84;;;-142.29;100.00
7748;BME280;3918;42.564;23.164;2023-07-02T15:03:42;-11650.84;;;-142.29;100.00
7748;BME280;3918;42.564;23.164;2023-07-02T15:06:10;-11650.84;;;-142.29;100.00
7748;BME280;3918;42.564;23.164;2023-07-02T15:08:39;-11650.84;;;-142.29;100.00
7748;BME280;3918;42.564;23.164;2023-07-02T15:11:06;-11650.84;;;-142.29;100.00
7748;BME280;3918;42.564;23.164;2023-07-02T15:13:33;-11650.84;;;-142.29;100.00
7748;BME280;3918;42.564;23.164;2023-07-02T15:16:01;-11650.84;;;-142.29;100.00
7748;BME280;3918;42.564;23.164;2023-07-02T15:18:29;-11650.84;;;-142.29;100.00
7748;BME280;3918;42.564;23.164;2023-07-02T15:20:56;-11650.84;;;-142.29;100.00
7748;BME280;3918;42.564;23.164;2023-07-02T15:23:23;-11650.84;;;-142.29;100.00
7748;BME280;3918;42.564;23.164;2023-07-02T15:25:53;-11650.84;;;-142.29;100.00
7748;BME280;3918;42.564;23.164;2023-07-02T15:28:21;-11650.84;;;-142.29;100.00
7748;BME280;3918;42.564;23.164;2023-07-02T15:30:51;-11650.84;;;-142.29;100.00
7748;BME280;3918;42.564;23.164;2023-07-02T15:33:18;-11650.84;;;-142.29;100.00
7748;BME280;3918;42.564;23.164;2023-07-02T15:35:45;-11650.84;;;-142.29;100.00
7748;BME280;3918;42.564;23.164;2023-07-02T15:38:12;-11650.84;;;-142.29;100.00
7748;BME280;3918;42.564;23.164;2023-07-02T15:40:38;-11650.84;;;-142.29;100.00
7748;BME280;3918;42.564;23.164;2023-07-02T15:43:06;-11650.84;;;-142.29;100.00
7748;BME280;3918;42.564;23.164;2023-07-02T15:45:34;-11650.84;;;-142.29;100.00
7748;BME280;3918;42.564;23.164;2023-07-02T15:48:01;-11650.84;;;-142.29;100.00
7748;BME280;3918;42.564;23.164;2023-07-02T15:50:28;-11650.84;;;-142.29;100.00
7748;BME280;3918;42.564;23.164;2023-07-02T15:52:55;-11650.84;;;-142.29;100.00
7748;BME280;3918;42.564;23.164;2023-07-02T15:55:22;-11650.84;;;-142.29;100.00
7748;BME280;3918;42.564;23.164;2023-07-02T15:57:49;-11650.84;;;-142.29;100.00
7748;BME280;3918;42.564;23.164;2023-07-02T16:00:18;-11650.84;;;-142.29;94.15
7748;BME280;3918;42.564;23.164;2023-07-02T16:02:45;-11650.84;;;-142.29;100.00
7748;BME280;3918;42.564;23.164;2023-07-02T16:05:12;-11650.84;;;-142.29;100.00
7748;BME280;3918;42.564;23.164;2023-07-02T16:07:39;-11650.84;;;-142.29;100.00
7748;BME280;3918;42.564;23.164;2023-07-02T16:10:08;-11650.84;;;-142.29;100.00
7748;BME280;3918;42.564;23.164;2023-07-02T16:12:35;-11650.84;;;-142.29;100.00
7748;BME280;3918;42.564;23.164;2023-07-02T16:15:03;-11650.84;;;-142.29;100.00
7748;BME280;3918;42.564;23.164;2023-07-02T16:17:31;-11650.84;;;-142.29;100.00
7748;BME280;3918;42.564;23.164;2023-07-02T16:19:57;-11650.84;;;-142.29;100.00
7748;BME280;3918;42.564;23.164;2023-07-02T16:22:24;-11650.84;;;-142.29;100.00
7748;BME280;3918;42.564;23.164;2023-07-02T16:24:51;-11650.84;;;-142.29;100.00
7748;BME280;3918;42.564;23.164;2023-07-02T16:27:20;-11650.84;;;-142.29;100.00
7748;BME280;3918;42.564;23.164;2023-07-02T16:29:47;-11650.84;;;-142.29;100.00
7748;BME280;3918;42.564;23.164;2023-07-02T16:32:13;-11650.84;;;-142.29;96.78
7748;BME280;3918;42.564;23.164;2023-07-02T16:34:44;-11650.84;;;-142.29;96.82
7748;BME280;3918;42.564;23.164;2023-07-02T16:37:10;-11650.84;;;-142.29;94.33
7748;BME280;3918;42.564;23.164;2023-07-02T16:39:37;-11650.84;;;-142.29;90.19
7748;BME280;3918;42.564;23.164;2023-07-02T16:42:05;-11650.84;;;-142.29;88.31